createdAt,value
2019-04-29T00:03:18.438Z,78.77
2019-04-29T00:08:37.031Z,78.85
2019-04-29T00:13:55.945Z,79.01
2019-04-29T00:19:22.046Z,79.12
2019-04-29T00:24:40.684Z,79.25
2019-04-29T00:29:59.324Z,79.29
2019-04-29T00:35:17.960Z,79.42
2019-04-29T00:40:38.170Z,79.50
2019-04-29T00:45:56.861Z,79.71
2019-04-29T00:51:15.528Z,79.79
2019-04-29T00:56:34.256Z,79.97
2019-04-29T01:01:53.049Z,80.15
2019-04-29T01:07:11.758Z,80.41
2019-04-29T01:12:30.394Z,80.66
2019-04-29T01:17:49.016Z,80.73
2019-04-29T01:23:07.652Z,80.82
2019-04-29T01:28:27.924Z,80.92
2019-04-29T01:33:48.216Z,81.07
2019-04-29T01:39:09.216Z,81.23
2019-04-29T01:44:29.427Z,81.36
2019-04-29T01:49:48.009Z,83.86
2019-04-29T01:55:06.858Z,94.17
2019-04-29T02:00:25.499Z,100.00
2019-04-29T02:05:44.333Z,100.00
2019-04-29T02:11:03.081Z,100.00
2019-04-29T02:16:21.864Z,100.00
2019-04-29T02:21:41.960Z,100.00
2019-04-29T02:27:00.512Z,100.00
2019-04-29T02:32:19.197Z,100.00
2019-04-29T02:37:39.338Z,100.00
2019-04-29T02:42:59.548Z,100.00
2019-04-29T02:48:18.111Z,100.00
2019-04-29T02:53:36.675Z,100.00
2019-04-29T02:58:59.816Z,100.00
2019-04-29T03:04:20.136Z,100.00
2019-04-29T03:09:45.479Z,100.00
2019-04-29T03:15:05.277Z,100.00
2019-04-29T03:20:28.567Z,100.00
2019-04-29T03:25:47.206Z,100.00
2019-04-29T03:31:05.832Z,100.00
2019-04-29T03:36:24.455Z,100.00
2019-04-29T03:41:43.410Z,100.00
2019-04-29T03:47:01.951Z,100.00
2019-04-29T03:52:20.458Z,100.00
2019-04-29T03:57:39.110Z,100.00
2019-04-29T04:02:59.341Z,100.00
2019-04-29T04:08:37.674Z,100.00
2019-04-29T04:13:56.241Z,100.00
2019-04-29T04:19:15.063Z,100.00
2019-04-29T04:24:33.632Z,100.00
2019-04-29T04:29:52.195Z,100.00
2019-04-29T04:35:11.213Z,100.00
2019-04-29T04:40:31.422Z,100.00
2019-04-29T04:45:50.000Z,100.00
2019-04-29T04:51:08.568Z,100.00
2019-04-29T04:56:27.146Z,100.00
2019-04-29T05:01:45.708Z,100.00
2019-04-29T05:07:04.281Z,100.00
2019-04-29T05:12:22.850Z,100.00
2019-04-29T05:17:41.542Z,100.00
2019-04-29T05:23:00.201Z,100.00
2019-04-29T05:28:18.760Z,84.21
2019-04-29T05:33:37.302Z,64.75
2019-04-29T05:38:57.503Z,61.23
2019-04-29T05:44:19.151Z,53.31
2019-04-29T05:49:45.669Z,55.86
2019-04-29T05:55:05.361Z,54.85
2019-04-29T06:00:24.310Z,53.33
2019-04-29T06:05:42.837Z,51.32
2019-04-29T06:11:01.411Z,50.02
2019-04-29T06:16:20.988Z,49.13
2019-04-29T06:21:40.227Z,45.83
2019-04-29T06:26:58.793Z,45.32
2019-04-29T06:32:20.265Z,44.68
2019-04-29T06:37:37.565Z,45.64
2019-04-29T06:42:56.044Z,46.29
2019-04-29T06:48:14.665Z,48.29
2019-04-29T06:53:33.208Z,49.74
2019-04-29T06:58:51.713Z,47.99
2019-04-29T07:04:10.249Z,46.79
2019-04-29T07:09:28.820Z,47.73
2019-04-29T07:14:47.413Z,48.86
2019-04-29T07:20:06.932Z,48.13
2019-04-29T07:25:28.742Z,46.53
2019-04-29T07:31:01.197Z,44.08
2019-04-29T07:36:11.112Z,46.00
2019-04-29T07:41:26.502Z,44.60
2019-04-29T07:46:56.774Z,43.17
2019-04-29T07:52:09.793Z,42.91
2019-04-29T07:57:27.472Z,42.23
2019-04-29T08:02:46.195Z,45.09
2019-04-29T08:08:05.314Z,44.81
2019-04-29T08:13:26.181Z,43.52
2019-04-29T08:18:44.750Z,43.55
2019-04-29T08:24:03.474Z,42.17
2019-04-29T08:29:22.051Z,45.00
2019-04-29T08:34:40.974Z,42.21
2019-04-29T08:40:15.122Z,43.00
2019-04-29T08:45:39.100Z,43.86
2019-04-29T08:50:57.779Z,44.08
2019-04-29T08:56:16.535Z,46.09
2019-04-29T09:01:35.810Z,45.00
2019-04-29T09:06:54.743Z,44.62
2019-04-29T09:12:13.569Z,43.79
2019-04-29T09:17:32.131Z,43.50
2019-04-29T09:22:55.123Z,42.68
2019-04-29T09:28:18.417Z,43.29
2019-04-29T09:33:35.504Z,44.63
2019-04-29T09:38:54.066Z,43.68
2019-04-29T09:44:30.670Z,45.54
2019-04-29T09:49:49.279Z,44.31
2019-04-29T09:55:08.586Z,45.10
2019-04-29T10:00:45.388Z,45.10
2019-04-29T10:06:20.950Z,45.94
2019-04-29T10:11:39.876Z,43.05
2019-04-29T10:17:15.415Z,43.81
2019-04-29T10:22:33.817Z,43.00
2019-04-29T10:27:52.533Z,43.03
2019-04-29T10:33:12.822Z,44.65
2019-04-29T10:38:32.699Z,41.72
2019-04-29T10:44:02.011Z,42.85
2019-04-29T10:49:22.850Z,43.48
2019-04-29T10:54:41.599Z,44.64
2019-04-29T11:00:11.319Z,45.10
2019-04-29T11:05:34.661Z,44.79
2019-04-29T11:11:02.166Z,45.28
2019-04-29T11:16:15.764Z,42.89
2019-04-29T11:21:34.705Z,43.23
2019-04-29T11:26:54.994Z,42.05
2019-04-29T11:32:15.994Z,42.65
2019-04-29T11:37:35.040Z,41.84
2019-04-29T11:42:53.684Z,43.23
2019-04-29T11:48:13.618Z,41.93
2019-04-29T11:53:32.513Z,41.56
2019-04-29T11:58:52.793Z,43.12
2019-04-29T12:04:13.174Z,40.07
2019-04-29T12:09:33.632Z,39.00
2019-04-29T12:14:56.658Z,40.61
2019-04-29T12:20:22.899Z,40.25
2019-04-29T12:25:41.757Z,40.08
2019-04-29T12:31:05.760Z,39.51
2019-04-29T12:36:22.995Z,41.23
2019-04-29T12:41:49.428Z,41.19
2019-04-29T12:47:25.896Z,41.57
2019-04-29T12:52:32.992Z,41.83
2019-04-29T12:57:55.335Z,41.51
2019-04-29T13:03:39.240Z,40.91
2019-04-29T13:08:52.958Z,40.19
2019-04-29T13:14:11.673Z,40.07
2019-04-29T13:19:32.093Z,41.48
2019-04-29T13:24:50.797Z,40.05
2019-04-29T13:30:16.047Z,40.52
2019-04-29T13:35:33.146Z,39.93
2019-04-29T13:41:11.512Z,39.92
2019-04-29T13:46:16.747Z,39.83
2019-04-29T13:51:37.033Z,40.99
2019-04-29T13:56:57.066Z,40.12
2019-04-29T14:02:22.244Z,39.72
2019-04-29T14:07:40.974Z,40.79
2019-04-29T14:13:09.632Z,39.83
2019-04-29T14:18:20.091Z,40.46
2019-04-29T14:23:38.759Z,40.59
2019-04-29T14:28:57.430Z,41.16
2019-04-29T14:34:20.359Z,41.63
2019-04-29T14:39:38.607Z,41.99
2019-04-29T14:44:58.905Z,41.52
2019-04-29T14:50:20.601Z,41.31
2019-04-29T14:55:38.465Z,42.24
2019-04-29T15:01:02.056Z,42.54
2019-04-29T15:06:21.139Z,42.09
2019-04-29T15:11:45.489Z,42.44
2019-04-29T15:17:03.786Z,42.53
2019-04-29T15:22:24.672Z,42.40
2019-04-29T15:27:43.428Z,42.30
2019-04-29T15:33:02.145Z,43.80
2019-04-29T15:38:20.781Z,43.68
2019-04-29T15:43:47.453Z,43.78
2019-04-29T15:49:01.436Z,45.10
2019-04-29T15:54:20.079Z,44.66
2019-04-29T15:59:48.639Z,45.67
2019-04-29T16:05:04.656Z,44.32
2019-04-29T16:10:58.025Z,44.12
2019-04-29T16:16:13.029Z,44.17
2019-04-29T16:21:38.884Z,44.40
2019-04-29T16:26:53.608Z,45.48
2019-04-29T16:32:14.209Z,46.80
2019-04-29T16:37:33.381Z,46.96
2019-04-29T16:43:08.503Z,46.95
2019-04-29T16:48:27.400Z,47.92
2019-04-29T16:53:46.343Z,48.98
2019-04-29T16:59:09.214Z,50.32
2019-04-29T17:04:25.439Z,51.56
2019-04-29T17:10:02.162Z,52.03
2019-04-29T17:15:25.491Z,53.06
2019-04-29T17:20:41.555Z,52.52
2019-04-29T17:26:00.262Z,52.57
2019-04-29T17:37:00.323Z,52.75
2019-04-29T17:42:18.957Z,53.33
2019-04-29T17:47:58.829Z,53.75
2019-04-29T17:53:25.366Z,54.11
2019-04-29T17:58:51.328Z,54.84
2019-04-29T18:04:16.664Z,54.69
2019-04-29T18:09:36.661Z,55.22
2019-04-29T18:14:55.441Z,56.36
2019-04-29T18:20:17.670Z,56.22
2019-04-29T18:25:44.844Z,56.84
2019-04-29T18:31:05.925Z,57.14
2019-04-29T18:36:26.643Z,57.47
2019-04-29T18:41:44.982Z,57.56
2019-04-29T18:47:05.513Z,57.69
2019-04-29T18:52:27.891Z,57.62
2019-04-29T18:57:44.365Z,58.25
2019-04-29T19:03:03.114Z,58.60
2019-04-29T19:08:23.411Z,58.70
2019-04-29T19:13:43.523Z,59.34
2019-04-29T19:19:02.729Z,60.60
2019-04-29T19:24:21.248Z,62.01
2019-04-29T19:29:43.227Z,63.29
2019-04-29T19:35:00.264Z,64.75
2019-04-29T19:40:18.918Z,65.73
2019-04-29T19:45:37.910Z,66.08
2019-04-29T19:51:13.982Z,66.86
2019-04-29T19:56:23.370Z,67.31
2019-04-29T20:01:38.255Z,67.72
2019-04-29T20:07:05.649Z,67.34
2019-04-29T20:12:18.197Z,67.78
2019-04-29T20:17:57.793Z,68.03
2019-04-29T20:23:24.915Z,66.87
2019-04-29T20:28:36.994Z,66.25
2019-04-29T20:33:58.485Z,66.73
2019-04-29T20:39:23.078Z,66.87
2019-04-29T20:44:37.036Z,66.77
2019-04-29T20:49:57.156Z,66.40
2019-04-29T20:55:16.087Z,65.37
2019-04-29T21:00:38.003Z,65.24
2019-04-29T21:06:02.694Z,65.24
2019-04-29T21:11:30.467Z,64.46
2019-04-29T21:16:50.648Z,64.33
2019-04-29T21:22:12.900Z,64.71
2019-04-29T21:27:29.649Z,64.77
2019-04-29T21:32:48.368Z,65.07
2019-04-29T21:38:08.564Z,65.24
2019-04-29T21:43:28.793Z,64.71
2019-04-29T21:48:47.338Z,64.82
2019-04-29T21:54:09.710Z,64.67
2019-04-29T21:59:26.419Z,65.24
2019-04-29T22:04:46.990Z,65.42
2019-04-29T22:10:08.706Z,66.21
2019-04-29T22:15:32.751Z,66.09
2019-04-29T22:20:47.786Z,66.01
2019-04-29T22:26:06.532Z,65.83
2019-04-29T22:31:28.388Z,65.77
2019-04-29T22:36:48.268Z,65.93
2019-04-29T22:42:07.510Z,66.12
2019-04-29T22:47:26.064Z,66.26
2019-04-29T22:52:45.320Z,66.66
2019-04-29T22:58:08.597Z,67.15
2019-04-29T23:03:24.341Z,67.25
2019-04-29T23:08:44.900Z,67.36
2019-04-29T23:14:06.614Z,67.74
2019-04-29T23:19:25.803Z,68.11
2019-04-29T23:24:55.778Z,68.54
2019-04-29T23:30:17.997Z,68.81
2019-04-29T23:35:39.824Z,68.80
2019-04-29T23:40:57.717Z,68.95
2019-04-29T23:46:16.342Z,68.92
2019-04-29T23:51:37.794Z,69.13
2019-04-29T23:57:02.797Z,69.39
